sensor_id;sensor_type;location;lat;lon;timestamp;pressure;altitude;pressure_sealevel;temperature;humidity
76095;BME280;64821;13.710;100.604;2023-04-08T00:00:08;101166.56;;;35.83;47.78
76095;BME280;64821;13.710;100.604;2023-04-08T00:01:12;101177.25;;;35.85;48.55
76095;BME280;64821;13.710;100.604;2023-04-08T00:02:16;101170.94;;;35.84;47.35
76095;BME280;64821;13.710;100.604;2023-04-08T00:03:20;101173.50;;;35.89;47.81
76095;BME280;64821;13.710;100.604;2023-04-08T00:04:25;101177.22;;;35.93;47.62
76095;BME280;64821;13.710;100.604;2023-04-08T00:05:29;101176.50;;;35.96;47.53
76095;BME280;64821;13.710;100.604;2023-04-08T00:06:32;101156.25;;;35.72;48.32
76095;BME280;64821;13.710;100.604;2023-04-08T00:07:36;101186.28;;;35.94;47.04
76095;BME280;64821;13.710;100.604;2023-04-08T00:08:40;101179.28;;;35.96;47.50
76095;BME280;64821;13.710;100.604;2023-04-08T00:09:45;101184.13;;;36.00;46.89
76095;BME280;64821;13.710;100.604;2023-04-08T00:10:50;101175.84;;;36.00;47.32
76095;BME280;64821;13.710;100.604;2023-04-08T00:11:53;101183.31;;;35.99;47.46
76095;BME280;64821;13.710;100.604;2023-04-08T00:12:57;101187.84;;;36.04;47.52
76095;BME280;64821;13.710;100.604;2023-04-08T00:14:02;101152.56;;;35.88;46.79
76095;BME280;64821;13.710;100.604;2023-04-08T00:15:07;101180.97;;;36.10;46.43
76095;BME280;64821;13.710;100.604;2023-04-08T00:16:11;101187.44;;;36.14;47.61
76095;BME280;64821;13.710;100.604;2023-04-08T00:17:14;101188.56;;;36.13;47.54
76095;BME280;64821;13.710;100.604;2023-04-08T00:18:18;101187.63;;;36.09;47.53
76095;BME280;64821;13.710;100.604;2023-04-08T00:19:22;101198.47;;;36.14;47.57
76095;BME280;64821;13.710;100.604;2023-04-08T00:20:26;101189.72;;;36.12;46.72
76095;BME280;64821;13.710;100.604;2023-04-08T00:21:33;101197.63;;;36.22;46.31
76095;BME280;64821;13.710;100.604;2023-04-08T00:22:36;101203.47;;;36.20;47.33
76095;BME280;64821;13.710;100.604;2023-04-08T00:23:40;101217.03;;;36.25;46.38
76095;BME280;64821;13.710;100.604;2023-04-08T00:24:45;101215.56;;;36.28;47.19
76095;BME280;64821;13.710;100.604;2023-04-08T00:25:49;101215.72;;;36.31;45.85
76095;BME280;64821;13.710;100.604;2023-04-08T00:26:53;101214.22;;;36.34;46.51
76095;BME280;64821;13.710;100.604;2023-04-08T00:27:57;101212.47;;;36.29;46.34
76095;BME280;64821;13.710;100.604;2023-04-08T00:29:00;101215.56;;;36.28;47.36
76095;BME280;64821;13.710;100.604;2023-04-08T00:30:05;101216.03;;;36.30;47.38
76095;BME280;64821;13.710;100.604;2023-04-08T00:31:09;101214.44;;;36.29;47.13
76095;BME280;64821;13.710;100.604;2023-04-08T00:32:13;101222.50;;;36.34;46.32
76095;BME280;64821;13.710;100.604;2023-04-08T00:33:17;101223.44;;;36.38;47.24
76095;BME280;64821;13.710;100.604;2023-04-08T00:34:20;101222.44;;;36.22;47.48
76095;BME280;64821;13.710;100.604;2023-04-08T00:35:24;101224.81;;;36.32;47.12
76095;BME280;64821;13.710;100.604;2023-04-08T00:36:28;101217.66;;;36.31;47.14
76095;BME280;64821;13.710;100.604;2023-04-08T00:37:32;101223.28;;;36.34;46.87
76095;BME280;64821;13.710;100.604;2023-04-08T00:38:35;101233.59;;;36.46;46.50
76095;BME280;64821;13.710;100.604;2023-04-08T00:39:39;101228.78;;;36.43;46.62
76095;BME280;64821;13.710;100.604;2023-04-08T00:40:45;101244.44;;;36.51;46.99
76095;BME280;64821;13.710;100.604;2023-04-08T00:41:48;101247.31;;;36.55;46.36
76095;BME280;64821;13.710;100.604;2023-04-08T00:42:52;101218.66;;;36.26;46.95
76095;BME280;64821;13.710;100.604;2023-04-08T00:43:56;101249.63;;;36.53;46.70
76095;BME280;64821;13.710;100.604;2023-04-08T00:45:00;101254.13;;;36.57;46.15
76095;BME280;64821;13.710;100.604;2023-04-08T00:46:04;101255.06;;;36.41;47.13
76095;BME280;64821;13.710;100.604;2023-04-08T00:47:11;101259.16;;;36.55;46.31
76095;BME280;64821;13.710;100.604;2023-04-08T00:48:18;101224.47;;;36.33;46.96
76095;BME280;64821;13.710;100.604;2023-04-08T00:49:21;101257.81;;;36.61;46.25
76095;BME280;64821;13.710;100.604;2023-04-08T00:50:35;101265.78;;;36.42;47.20
76095;BME280;64821;13.710;100.604;2023-04-08T00:51:42;101266.94;;;36.41;47.50
76095;BME280;64821;13.710;100.604;2023-04-08T00:52:46;101259.94;;;36.14;47.39
76095;BME280;64821;13.710;100.604;2023-04-08T00:53:50;101272.91;;;36.43;47.03
76095;BME280;64821;13.710;100.604;2023-04-08T00:54:54;101273.66;;;36.52;47.00
76095;BME280;64821;13.710;100.604;2023-04-08T00:56:00;101271.56;;;36.49;47.45
76095;BME280;64821;13.710;100.604;2023-04-08T00:57:04;101274.91;;;36.55;47.11
76095;BME280;64821;13.710;100.604;2023-04-08T00:58:08;101278.41;;;36.64;46.63
76095;BME280;64821;13.710;100.604;2023-04-08T00:59:12;101276.41;;;36.73;46.37
76095;BME280;64821;13.710;100.604;2023-04-08T01:00:16;101288.41;;;36.77;46.16
76095;BME280;64821;13.710;100.604;2023-04-08T01:01:27;101285.06;;;36.84;45.70
76095;BME280;64821;13.710;100.604;2023-04-08T01:02:40;101250.78;;;36.64;44.97
76095;BME280;64821;13.710;100.604;2023-04-08T01:03:52;101269.63;;;36.71;46.06
76095;BME280;64821;13.710;100.604;2023-04-08T01:05:02;101294.59;;;36.74;46.17
76095;BME280;64821;13.710;100.604;2023-04-08T01:06:10;101279.53;;;36.72;46.22
76095;BME280;64821;13.710;100.604;2023-04-08T01:07:19;101300.31;;;36.90;45.59
76095;BME280;64821;13.710;100.604;2023-04-08T01:08:31;101304.47;;;36.96;45.05
76095;BME280;64821;13.710;100.604;2023-04-08T01:09:38;101285.06;;;36.84;44.87
76095;BME280;64821;13.710;100.604;2023-04-08T01:10:44;101310.66;;;36.93;46.20
76095;BME280;64821;13.710;100.604;2023-04-08T01:11:56;101296.69;;;36.77;46.22
76095;BME280;64821;13.710;100.604;2023-04-08T01:13:04;101308.31;;;36.83;45.92
76095;BME280;64821;13.710;100.604;2023-04-08T01:14:09;101300.03;;;36.83;46.01
76095;BME280;64821;13.710;100.604;2023-04-08T01:15:14;101316.78;;;36.98;45.69
76095;BME280;64821;13.710;100.604;2023-04-08T01:16:19;101313.34;;;37.01;45.60
76095;BME280;64821;13.710;100.604;2023-04-08T01:17:38;101302.72;;;36.91;45.31
76095;BME280;64821;13.710;100.604;2023-04-08T01:18:46;101324.75;;;37.00;45.66
76095;BME280;64821;13.710;100.604;2023-04-08T01:19:51;101325.75;;;36.95;45.92
76095;BME280;64821;13.710;100.604;2023-04-08T01:21:13;101330.34;;;36.91;45.79
76095;BME280;64821;13.710;100.604;2023-04-08T01:22:27;101331.41;;;36.99;45.10
76095;BME280;64821;13.710;100.604;2023-04-08T01:23:38;101337.19;;;37.06;45.08
76095;BME280;64821;13.710;100.604;2023-04-08T01:24:43;101332.88;;;37.17;44.85
76095;BME280;64821;13.710;100.604;2023-04-08T01:25:51;101334.28;;;37.02;44.79
76095;BME280;64821;13.710;100.604;2023-04-08T01:26:57;101342.31;;;37.16;44.14
76095;BME280;64821;13.710;100.604;2023-04-08T01:28:04;101331.66;;;37.06;44.77
76095;BME280;64821;13.710;100.604;2023-04-08T01:29:10;101336.50;;;37.09;44.66
76095;BME280;64821;13.710;100.604;2023-04-08T01:30:17;101319.03;;;36.84;44.77
76095;BME280;64821;13.710;100.604;2023-04-08T01:31:23;101334.59;;;37.22;43.93
76095;BME280;64821;13.710;100.604;2023-04-08T01:32:28;101324.16;;;37.27;43.48
76095;BME280;64821;13.710;100.604;2023-04-08T01:33:33;101332.81;;;37.38;43.52
76095;BME280;64821;13.710;100.604;2023-04-08T01:34:38;101338.94;;;37.43;42.85
76095;BME280;64821;13.710;100.604;2023-04-08T01:35:44;101336.25;;;37.35;43.45
76095;BME280;64821;13.710;100.604;2023-04-08T01:36:48;101340.88;;;37.43;43.31
76095;BME280;64821;13.710;100.604;2023-04-08T01:37:53;101334.44;;;37.39;43.22
76095;BME280;64821;13.710;100.604;2023-04-08T01:38:59;101338.50;;;37.54;43.11
76095;BME280;64821;13.710;100.604;2023-04-08T01:40:07;101350.47;;;37.58;42.70
76095;BME280;64821;13.710;100.604;2023-04-08T01:41:13;101330.41;;;37.36;43.61
76095;BME280;64821;13.710;100.604;2023-04-08T01:42:18;101342.06;;;37.54;43.25
76095;BME280;64821;13.710;100.604;2023-04-08T01:43:22;101337.81;;;37.57;42.16
76095;BME280;64821;13.710;100.604;2023-04-08T01:44:27;101339.22;;;37.63;42.46
76095;BME280;64821;13.710;100.604;2023-04-08T01:45:32;101351.03;;;37.51;41.83
76095;BME280;64821;13.710;100.604;2023-04-08T01:46:36;101344.06;;;37.66;41.82
76095;BME280;64821;13.710;100.604;2023-04-08T01:47:45;101342.69;;;37.72;41.21
76095;BME280;64821;13.710;100.604;2023-04-08T01:48:49;101341.19;;;37.74;42.46
76095;BME280;64821;13.710;100.604;2023-04-08T01:49:54;101340.84;;;37.76;42.06
76095;BME280;64821;13.710;100.604;2023-04-08T01:50:59;101347.31;;;37.80;41.69
76095;BME280;64821;13.710;100.604;2023-04-08T01:52:04;101339.38;;;37.78;41.99
76095;BME280;64821;13.710;100.604;2023-04-08T01:53:09;101341.34;;;37.78;42.33
76095;BME280;64821;13.710;100.604;2023-04-08T01:54:13;101341.66;;;37.76;42.17
76095;BME280;64821;13.710;100.604;2023-04-08T01:55:17;101341.09;;;37.83;40.83
76095;BME280;64821;13.710;100.604;2023-04-08T01:56:23;101341.03;;;37.59;42.32
76095;BME280;64821;13.710;100.604;2023-04-08T01:57:32;101347.19;;;37.76;41.77
76095;BME280;64821;13.710;100.604;2023-04-08T01:58:39;101352.72;;;37.76;41.98
76095;BME280;64821;13.710;100.604;2023-04-08T01:59:46;101360.91;;;37.85;41.42
76095;BME280;64821;13.710;100.604;2023-04-08T02:00:51;101365.19;;;37.70;42.22
76095;BME280;64821;13.710;100.604;2023-04-08T02:01:56;101354.44;;;37.81;41.60
76095;BME280;64821;13.710;100.604;2023-04-08T02:03:02;101358.81;;;37.82;42.00
76095;BME280;64821;13.710;100.604;2023-04-08T02:04:08;101361.88;;;37.56;41.97
76095;BME280;64821;13.710;100.604;2023-04-08T02:05:13;101365.72;;;37.64;41.49
76095;BME280;64821;13.710;100.604;2023-04-08T02:06:17;101365.50;;;37.81;40.92
76095;BME280;64821;13.710;100.604;2023-04-08T02:07:21;101368.19;;;37.90;41.48
76095;BME280;64821;13.710;100.604;2023-04-08T02:08:25;101374.97;;;37.92;41.72
76095;BME280;64821;13.710;100.604;2023-04-08T02:09:29;101351.13;;;37.75;41.18
76095;BME280;64821;13.710;100.604;2023-04-08T02:10:33;101372.22;;;37.80;41.65
76095;BME280;64821;13.710;100.604;2023-04-08T02:11:38;101376.34;;;37.74;42.18
76095;BME280;64821;13.710;100.604;2023-04-08T02:12:42;101374.97;;;37.80;42.00
76095;BME280;64821;13.710;100.604;2023-04-08T02:13:47;101373.56;;;37.74;42.07
76095;BME280;64821;13.710;100.604;2023-04-08T02:14:50;101381.38;;;37.60;41.91
76095;BME280;64821;13.710;100.604;2023-04-08T02:15:58;101369.38;;;37.56;42.47
76095;BME280;64821;13.710;100.604;2023-04-08T02:17:09;101377.78;;;37.59;42.14
76095;BME280;64821;13.710;100.604;2023-04-08T02:18:16;101371.47;;;37.71;41.45
76095;BME280;64821;13.710;100.604;2023-04-08T02:19:28;101375.31;;;37.91;40.47
76095;BME280;64821;13.710;100.604;2023-04-08T02:20:37;101379.13;;;37.86;41.86
76095;BME280;64821;13.710;100.604;2023-04-08T02:21:47;101352.25;;;37.62;42.37
76095;BME280;64821;13.710;100.604;2023-04-08T02:22:56;101385.81;;;37.85;42.07
76095;BME280;64821;13.710;100.604;2023-04-08T02:24:04;101386.72;;;38.01;41.68
76095;BME280;64821;13.710;100.604;2023-04-08T02:25:13;101371.22;;;38.09;41.87
76095;BME280;64821;13.710;100.604;2023-04-08T02:26:18;101370.75;;;38.19;41.07
76095;BME280;64821;13.710;100.604;2023-04-08T02:27:26;101375.47;;;38.19;41.37
76095;BME280;64821;13.710;100.604;2023-04-08T02:28:33;101372.00;;;38.22;40.72
76095;BME280;64821;13.710;100.604;2023-04-08T02:29:39;101370.63;;;38.16;41.48
76095;BME280;64821;13.710;100.604;2023-04-08T02:30:48;101361.06;;;38.13;42.00
76095;BME280;64821;13.710;100.604;2023-04-08T02:31:53;101357.25;;;38.18;41.73
76095;BME280;64821;13.710;100.604;2023-04-08T02:32:57;101372.00;;;38.34;40.92
76095;BME280;64821;13.710;100.604;2023-04-08T02:34:05;101369.69;;;38.36;41.00
76095;BME280;64821;13.710;100.604;2023-04-08T02:35:11;101371.28;;;37.88;42.42
76095;BME280;64821;13.710;100.604;2023-04-08T02:36:15;101378.00;;;37.99;42.43
76095;BME280;64821;13.710;100.604;2023-04-08T02:37:19;101366.50;;;38.09;42.17
76095;BME280;64821;13.710;100.604;2023-04-08T02:38:23;101362.00;;;38.17;41.42
76095;BME280;64821;13.710;100.604;2023-04-08T02:39:35;101364.38;;;38.31;40.57
76095;BME280;64821;13.710;100.604;2023-04-08T02:40:39;101369.94;;;38.06;41.65
76095;BME280;64821;13.710;100.604;2023-04-08T02:41:43;101374.19;;;37.80;42.85
76095;BME280;64821;13.710;100.604;2023-04-08T02:42:56;101366.03;;;38.20;41.60
76095;BME280;64821;13.710;100.604;2023-04-08T02:44:01;101322.19;;;37.97;41.67
76095;BME280;64821;13.710;100.604;2023-04-08T02:45:05;101357.47;;;38.37;41.62
76095;BME280;64821;13.710;100.604;2023-04-08T02:46:10;101361.13;;;38.41;41.30
76095;BME280;64821;13.710;100.604;2023-04-08T02:47:14;101355.38;;;38.46;40.84
76095;BME280;64821;13.710;100.604;2023-04-08T02:48:18;101360.34;;;38.53;41.19
76095;BME280;64821;13.710;100.604;2023-04-08T02:49:21;101354.44;;;38.42;41.31
76095;BME280;64821;13.710;100.604;2023-04-08T02:50:25;101358.16;;;38.46;40.93
76095;BME280;64821;13.710;100.604;2023-04-08T02:51:29;101355.03;;;38.47;41.11
76095;BME280;64821;13.710;100.604;2023-04-08T02:52:33;101353.06;;;38.48;40.83
76095;BME280;64821;13.710;100.604;2023-04-08T02:53:41;101359.78;;;38.35;40.69
76095;BME280;64821;13.710;100.604;2023-04-08T02:54:47;101353.19;;;38.39;41.05
76095;BME280;64821;13.710;100.604;2023-04-08T02:55:51;101346.16;;;38.54;40.85
76095;BME280;64821;13.710;100.604;2023-04-08T02:56:55;101351.69;;;38.54;40.31
76095;BME280;64821;13.710;100.604;2023-04-08T02:58:00;101349.94;;;38.62;39.74
76095;BME280;64821;13.710;100.604;2023-04-08T02:59:04;101347.63;;;38.64;40.40
76095;BME280;64821;13.710;100.604;2023-04-08T03:00:09;101344.25;;;38.70;40.05
76095;BME280;64821;13.710;100.604;2023-04-08T03:01:13;101342.41;;;38.74;40.23
76095;BME280;64821;13.710;100.604;2023-04-08T03:02:17;101344.09;;;38.79;39.96
76095;BME280;64821;13.710;100.604;2023-04-08T03:03:20;101343.41;;;38.82;39.50
76095;BME280;64821;13.710;100.604;2023-04-08T03:04:24;101352.78;;;38.77;39.76
76095;BME280;64821;13.710;100.604;2023-04-08T03:05:28;101345.00;;;38.55;39.87
76095;BME280;64821;13.710;100.604;2023-04-08T03:06:32;101346.72;;;38.60;40.05
76095;BME280;64821;13.710;100.604;2023-04-08T03:07:36;101344.88;;;38.64;39.45
76095;BME280;64821;13.710;100.604;2023-04-08T03:08:40;101347.75;;;38.43;40.46
76095;BME280;64821;13.710;100.604;2023-04-08T03:09:43;101345.91;;;38.59;39.42
76095;BME280;64821;13.710;100.604;2023-04-08T03:10:47;101345.34;;;38.54;40.26
76095;BME280;64821;13.710;100.604;2023-04-08T03:11:51;101346.22;;;38.70;39.95
76095;BME280;64821;13.710;100.604;2023-04-08T03:12:55;101347.44;;;38.84;39.32
76095;BME280;64821;13.710;100.604;2023-04-08T03:14:01;101347.00;;;38.82;39.53
76095;BME280;64821;13.710;100.604;2023-04-08T03:15:05;101346.09;;;38.78;39.84
76095;BME280;64821;13.710;100.604;2023-04-08T03:16:09;101345.69;;;38.52;39.70
76095;BME280;64821;13.710;100.604;2023-04-08T03:17:18;101339.19;;;38.72;39.16
76095;BME280;64821;13.710;100.604;2023-04-08T03:18:21;101326.91;;;38.58;39.92
76095;BME280;64821;13.710;100.604;2023-04-08T03:19:25;101346.78;;;38.75;39.00
76095;BME280;64821;13.710;100.604;2023-04-08T03:20:29;101323.16;;;38.66;38.46
76095;BME280;64821;13.710;100.604;2023-04-08T03:21:33;101346.16;;;38.94;38.59
76095;BME280;64821;13.710;100.604;2023-04-08T03:22:36;101339.13;;;38.97;38.67
76095;BME280;64821;13.710;100.604;2023-04-08T03:23:40;101339.78;;;39.06;38.95
76095;BME280;64821;13.710;100.604;2023-04-08T03:24:44;101341.63;;;39.02;38.89
76095;BME280;64821;13.710;100.604;2023-04-08T03:25:48;101344.16;;;39.07;38.10
76095;BME280;64821;13.710;100.604;2023-04-08T03:26:52;101340.59;;;39.06;38.31
76095;BME280;64821;13.710;100.604;2023-04-08T03:27:56;101317.97;;;39.04;38.51
76095;BME280;64821;13.710;100.604;2023-04-08T03:29:02;101330.91;;;39.00;37.94
76095;BME280;64821;13.710;100.604;2023-04-08T03:30:07;101330.25;;;38.79;38.50
76095;BME280;64821;13.710;100.604;2023-04-08T03:31:11;101335.41;;;38.93;38.32
76095;BME280;64821;13.710;100.604;2023-04-08T03:32:15;101334.50;;;38.88;38.34
76095;BME280;64821;13.710;100.604;2023-04-08T03:33:18;101332.25;;;38.78;39.05
76095;BME280;64821;13.710;100.604;2023-04-08T03:34:22;101331.03;;;39.19;37.92
76095;BME280;64821;13.710;100.604;2023-04-08T03:35:26;101337.66;;;39.31;37.20
76095;BME280;64821;13.710;100.604;2023-04-08T03:36:30;101335.97;;;39.26;36.56
76095;BME280;64821;13.710;100.604;2023-04-08T03:37:34;101308.97;;;39.23;36.28
76095;BME280;64821;13.710;100.604;2023-04-08T03:38:37;101316.47;;;39.07;36.87
76095;BME280;64821;13.710;100.604;2023-04-08T03:39:41;101323.44;;;39.16;37.07
76095;BME280;64821;13.710;100.604;2023-04-08T03:40:45;101323.75;;;39.27;36.83
76095;BME280;64821;13.710;100.604;2023-04-08T03:41:49;101322.38;;;39.21;36.88
76095;BME280;64821;13.710;100.604;2023-04-08T03:42:52;101294.13;;;39.15;37.50
76095;BME280;64821;13.710;100.604;2023-04-08T03:43:57;101315.81;;;39.41;37.67
76095;BME280;64821;13.710;100.604;2023-04-08T03:45:03;101324.69;;;39.47;36.10
76095;BME280;64821;13.710;100.604;2023-04-08T03:46:07;101317.88;;;39.44;37.64
76095;BME280;64821;13.710;100.604;2023-04-08T03:47:11;101326.91;;;39.41;36.91
76095;BME280;64821;13.710;100.604;2023-04-08T03:48:15;101317.25;;;39.51;36.58
76095;BME280;64821;13.710;100.604;2023-04-08T03:49:18;101319.38;;;39.57;36.35
76095;BME280;64821;13.710;100.604;2023-04-08T03:50:22;101311.97;;;39.62;37.18
76095;BME280;64821;13.710;100.604;2023-04-08T03:51:26;101317.63;;;39.37;37.01
76095;BME280;64821;13.710;100.604;2023-04-08T03:52:30;101296.97;;;39.47;36.69
76095;BME280;64821;13.710;100.604;2023-04-08T03:53:33;101306.16;;;39.51;36.35
76095;BME280;64821;13.710;100.604;2023-04-08T03:54:37;101303.47;;;39.54;36.50
76095;BME280;64821;13.710;100.604;2023-04-08T03:55:41;101309.69;;;39.36;36.18
76095;BME280;64821;13.710;100.604;2023-04-08T03:56:45;101304.81;;;39.45;36.80
76095;BME280;64821;13.710;100.604;2023-04-08T03:57:48;101306.25;;;39.54;35.96
76095;BME280;64821;13.710;100.604;2023-04-08T03:58:52;101305.97;;;39.59;35.75
76095;BME280;64821;13.710;100.604;2023-04-08T03:59:56;101304.97;;;39.68;35.68
76095;BME280;64821;13.710;100.604;2023-04-08T04:01:01;101288.34;;;39.36;36.39
76095;BME280;64821;13.710;100.604;2023-04-08T04:02:05;101295.16;;;39.54;35.94
76095;BME280;64821;13.710;100.604;2023-04-08T04:03:09;101278.53;;;39.54;36.24
76095;BME280;64821;13.710;100.604;2023-04-08T04:04:13;101292.19;;;39.63;36.47
76095;BME280;64821;13.710;100.604;2023-04-08T04:05:18;101292.38;;;39.70;36.17
76095;BME280;64821;13.710;100.604;2023-04-08T04:06:21;101271.19;;;39.62;34.77
76095;BME280;64821;13.710;100.604;2023-04-08T04:07:25;101286.91;;;39.74;35.23
76095;BME280;64821;13.710;100.604;2023-04-08T04:08:29;101290.13;;;39.60;36.35
76095;BME280;64821;13.710;100.604;2023-04-08T04:09:33;101290.97;;;39.45;36.19
76095;BME280;64821;13.710;100.604;2023-04-08T04:10:36;101285.66;;;39.71;35.99
76095;BME280;64821;13.710;100.604;2023-04-08T04:11:40;101283.13;;;39.82;34.69
76095;BME280;64821;13.710;100.604;2023-04-08T04:12:44;101286.19;;;39.92;35.41
76095;BME280;64821;13.710;100.604;2023-04-08T04:13:48;101284.22;;;39.93;35.37
76095;BME280;64821;13.710;100.604;2023-04-08T04:14:51;101267.50;;;39.89;35.08
76095;BME280;64821;13.710;100.604;2023-04-08T04:15:55;101281.00;;;39.91;34.47
76095;BME280;64821;13.710;100.604;2023-04-08T04:17:00;101281.06;;;39.79;35.43
76095;BME280;64821;13.710;100.604;2023-04-08T04:18:04;101283.06;;;39.94;35.74
76095;BME280;64821;13.710;100.604;2023-04-08T04:19:08;101289.94;;;40.00;34.51
76095;BME280;64821;13.710;100.604;2023-04-08T04:20:12;101282.72;;;39.96;35.22
76095;BME280;64821;13.710;100.604;2023-04-08T04:21:16;101279.72;;;40.04;35.09
76095;BME280;64821;13.710;100.604;2023-04-08T04:22:20;101283.22;;;40.01;34.78
76095;BME280;64821;13.710;100.604;2023-04-08T04:23:23;101275.50;;;40.10;34.93
76095;BME280;64821;13.710;100.604;2023-04-08T04:24:27;101281.50;;;40.12;34.73
76095;BME280;64821;13.710;100.604;2023-04-08T04:25:31;101277.66;;;40.01;34.87
76095;BME280;64821;13.710;100.604;2023-04-08T04:26:35;101280.00;;;39.68;34.88
76095;BME280;64821;13.710;100.604;2023-04-08T04:27:39;101274.13;;;39.53;35.13
76095;BME280;64821;13.710;100.604;2023-04-08T04:28:42;101273.13;;;39.77;34.82
76095;BME280;64821;13.710;100.604;2023-04-08T04:29:46;101279.69;;;39.85;35.47
76095;BME280;64821;13.710;100.604;2023-04-08T04:30:50;101280.09;;;39.87;34.58
76095;BME280;64821;13.710;100.604;2023-04-08T04:31:56;101270.50;;;40.00;34.99
76095;BME280;64821;13.710;100.604;2023-04-08T04:33:01;101267.88;;;40.07;34.74
76095;BME280;64821;13.710;100.604;2023-04-08T04:34:05;101269.78;;;40.03;35.36
76095;BME280;64821;13.710;100.604;2023-04-08T04:35:09;101263.69;;;40.13;35.04
76095;BME280;64821;13.710;100.604;2023-04-08T04:36:13;101264.00;;;40.27;34.76
76095;BME280;64821;13.710;100.604;2023-04-08T04:37:17;101256.84;;;40.26;34.94
76095;BME280;64821;13.710;100.604;2023-04-08T04:38:20;101263.38;;;40.18;35.07
76095;BME280;64821;13.710;100.604;2023-04-08T04:39:25;101256.66;;;40.35;33.56
76095;BME280;64821;13.710;100.604;2023-04-08T04:40:29;101249.03;;;40.32;33.58
76095;BME280;64821;13.710;100.604;2023-04-08T04:41:33;101256.78;;;40.42;33.87
76095;BME280;64821;13.710;100.604;2023-04-08T04:42:37;101255.84;;;40.00;34.85
76095;BME280;64821;13.710;100.604;2023-04-08T04:43:41;101234.44;;;40.00;34.10
76095;BME280;64821;13.710;100.604;2023-04-08T04:44:44;101242.97;;;40.26;33.47
76095;BME280;64821;13.710;100.604;2023-04-08T04:45:48;101231.22;;;40.33;33.79
76095;BME280;64821;13.710;100.604;2023-04-08T04:46:52;101229.31;;;40.37;34.13
76095;BME280;64821;13.710;100.604;2023-04-08T04:47:56;101228.75;;;40.12;33.60
76095;BME280;64821;13.710;100.604;2023-04-08T04:49:02;101228.63;;;40.24;33.82
76095;BME280;64821;13.710;100.604;2023-04-08T04:50:06;101235.75;;;40.41;33.64
76095;BME280;64821;13.710;100.604;2023-04-08T04:51:13;101214.13;;;40.31;33.21
76095;BME280;64821;13.710;100.604;2023-04-08T04:52:17;101238.78;;;40.55;33.52
76095;BME280;64821;13.710;100.604;2023-04-08T04:53:21;101221.34;;;40.36;33.15
76095;BME280;64821;13.710;100.604;2023-04-08T04:54:24;101224.63;;;40.60;33.78
76095;BME280;64821;13.710;100.604;2023-04-08T04:55:28;101222.53;;;40.54;33.52
76095;BME280;64821;13.710;100.604;2023-04-08T04:56:32;101220.47;;;40.51;33.89
76095;BME280;64821;13.710;100.604;2023-04-08T04:57:36;101208.19;;;40.71;33.74
76095;BME280;64821;13.710;100.604;2023-04-08T04:58:39;101217.91;;;40.61;34.57
76095;BME280;64821;13.710;100.604;2023-04-08T04:59:43;101207.16;;;40.21;34.09
76095;BME280;64821;13.710;100.604;2023-04-08T05:00:47;101225.00;;;40.40;34.15
76095;BME280;64821;13.710;100.604;2023-04-08T05:01:51;101214.91;;;40.51;33.76
76095;BME280;64821;13.710;100.604;2023-04-08T05:02:55;101221.47;;;40.62;33.42
76095;BME280;64821;13.710;100.604;2023-04-08T05:03:59;101217.09;;;40.80;33.72
76095;BME280;64821;13.710;100.604;2023-04-08T05:05:05;101219.69;;;40.92;32.57
76095;BME280;64821;13.710;100.604;2023-04-08T05:06:09;101215.44;;;40.98;32.91
76095;BME280;64821;13.710;100.604;2023-04-08T05:07:13;101208.16;;;40.90;32.99
76095;BME280;64821;13.710;100.604;2023-04-08T05:08:16;101213.31;;;40.69;33.94
76095;BME280;64821;13.710;100.604;2023-04-08T05:09:20;101211.53;;;40.80;33.50
76095;BME280;64821;13.710;100.604;2023-04-08T05:10:24;101210.28;;;40.78;32.75
76095;BME280;64821;13.710;100.604;2023-04-08T05:11:28;101208.38;;;40.82;33.86
76095;BME280;64821;13.710;100.604;2023-04-08T05:12:31;101197.66;;;40.80;33.45
76095;BME280;64821;13.710;100.604;2023-04-08T05:13:35;101213.56;;;41.06;32.75
76095;BME280;64821;13.710;100.604;2023-04-08T05:14:39;101211.03;;;40.97;33.11
76095;BME280;64821;13.710;100.604;2023-04-08T05:15:43;101177.22;;;40.92;33.12
76095;BME280;64821;13.710;100.604;2023-04-08T05:16:47;101196.31;;;41.16;32.81
76095;BME280;64821;13.710;100.604;2023-04-08T05:17:51;101193.59;;;41.20;32.03
76095;BME280;64821;13.710;100.604;2023-04-08T05:18:54;101202.41;;;41.25;32.86
76095;BME280;64821;13.710;100.604;2023-04-08T05:19:58;101182.38;;;41.13;32.86
76095;BME280;64821;13.710;100.604;2023-04-08T05:21:04;101177.31;;;40.76;32.51
76095;BME280;64821;13.710;100.604;2023-04-08T05:22:08;101178.88;;;40.96;32.18
76095;BME280;64821;13.710;100.604;2023-04-08T05:23:11;101182.56;;;41.04;32.08
76095;BME280;64821;13.710;100.604;2023-04-08T05:24:15;101178.59;;;41.05;32.92
76095;BME280;64821;13.710;100.604;2023-04-08T05:25:19;101178.56;;;41.01;31.68
76095;BME280;64821;13.710;100.604;2023-04-08T05:26:23;101183.53;;;41.12;32.22
76095;BME280;64821;13.710;100.604;2023-04-08T05:27:27;101183.63;;;40.96;32.39
76095;BME280;64821;13.710;100.604;2023-04-08T05:28:31;101172.69;;;41.07;31.79
76095;BME280;64821;13.710;100.604;2023-04-08T05:29:35;101174.22;;;41.04;31.58
76095;BME280;64821;13.710;100.604;2023-04-08T05:30:38;101169.28;;;41.13;31.71